Language selection

Weather shortcuts

Atlantic - Newfoundland: Past 24 Hour Conditions

 

Natashquan Airport

12:00 PM EST 26 February 2024
Disclaimer

This table is a summary of hourly weather conditions for the past 24 hours.
Please note that these observations might not always be representative of weather conditions over their associated marine area.

Date / Time
(EST)
Wind(knots) Conditions Visibility(km) Pressure(kPa) Air tempC) Relative humidity(%) Dew pointC) Wind Chill
26 February 2024
12:00 S 15 gusts 22 Partly Cloudy 16 101.1 -2 74 -6 -9
11:00 S 16 gusts 23 Mainly Sunny 16 101.2 -2 67 -7 -9
10:00 S 17 gusts 22 Mostly Cloudy 16 101.3 -2 65 -8 -9
9:00 S 12 gusts 20 Sunny 16 101.4 -2 66 -8 -9
8:00 S 11 gusts 16 Cloudy 16 101.4 -3 64 -9 -9
7:00 S 11 gusts 17 Cloudy 16 101.4 -3 68 -8 -9
6:00 S 14 Mostly Cloudy 16 101.4 -4 70 -8 -11
5:00 S 8 Cloudy 16 101.5 -4 73 -8 -9
4:00 S 8 Cloudy 16 101.5 -5 71 -9 -10
3:00 S 8 Cloudy 16 101.5 -7 77 -10 -13
2:00 E 5 Clear 16 101.5 -15 87 -16 -20
1:00 SE 5 Clear 16 101.5 -10 79 -13 -15
0:00 SSW 7 Clear 16 101.5 -7 71 -11 -12
25 February 2024
23:00 WSW 10 gusts 16 Clear 16 101.6 -7 72 -11 -13
22:00 WSW 12 gusts 19 Clear 16 101.5 -7 67 -12 -14
21:00 WSW 11 Clear 16 101.5 -7 64 -13 -15
20:00 WSW 12 gusts 17 Clear 16 101.4 -7 67 -12 -15
19:00 W 16 gusts 21 Cloudy 16 101.4 -7 73 -11 -16
18:00 calm Clear 16 101.3 -13 59 -19 *
17:00 NW 6 Clear 16 101.2 -12 54 -19 -17
16:00 WNW 7 Sunny 16 101.1 -10 56 -18 -17
15:00 W 11 gusts 17 Sunny 16 101.1 -10 53 -18 -18
14:00 WNW 14 gusts 20 Sunny 16 101.0 -10 52 -18 -19
13:00 WNW 15 Light Snow 16 100.9 -12 52 -19 -21
12:00 W 13 Light Snow 16 100.8 -12 62 -18 -21

Zoom-in to make a selection

Map of Atlantic - Newfoundland marine weather areas Banquereau - 44139 East Chedabucto Bay – 44488 West Chedabucto Bay – 44489 Blanc-Sablon Airport Cap Whittle Chevery Natashquan Airport Heath Point Îles de la Madeleine Airport Miscou Island Eskasoni (First Nations) Grand Étang Ingonish Beach North Mountain St.Paul Island J.A. Douglas McCurdy Sydney Airport Charlottetown Airport East Point North Cape Argentia Berry Hill Bonavista Burgeo Cape Race Corner Brook Daniel's Harbour Englee Ferolle Point La Scie Port aux Basques Sagona Island St. Anthony Airport St. John's Int'l Airport St. Lawrence Stephenville Airport Twillingate Winterland Branch Hill Wreckhouse Grates Cove Pool's Island Marticot Island Long Pond Cartwright Airport Mary's Harbour
Legend:
buoy Buoy
land station Land Station

Atlantic - Newfoundland Area

Another Region

Date modified: